Mendenhall, Pennsylvania
Current Conditions -  °F | °C
As of 11:51 PM on Saturday 22 Nov 2014 (Local Time) from KILG Reporting Station
Overcast Overcast  
Wind Chill: 37°   Ceiling: 10000
Heat Index: 42°   Visibility: 10mi
Dew Point: 23°   Wind: 8mph
Humidity: 47%   Direction: 200°SSW
Pressure: 30.26"   Gusts: NA
Location:  39.85°N, 75.64°W
Report Text: KILG 230451Z AUTO 20007KT 10SM OVC100 06/M05 A3026 RMK AO2 SLP245 T00561050 400781067
Loading
Personal Weather Stations






























Interactive Weather Map New forecast layout! Learn more

10-Day Weather Forecast

Advertisements
Track Severe Weather on mobile